Bossier City, LA (71111)

8:25 PM CDT on September 01, 2014 (GMT -0500)
North Bossier Weather Station | Change Station
CLOSE
Current Station
Personal Weather Station
Location: Bossier City, LA
Elevation: 173 ft
Nearby Weather Stations

Elev 173 ft 32.58 °N, 93.73 °W | Updated 0 second ago

Partly Cloudy
Partly Cloudy
84.3 °F
Feels Like 93 °F
N
0.0
Wind Variable Wind from SSE
Gusts 11.0 mph

Today
High -- | Low -- °F
--% Chance of Precip.
Yesterday
High -- | Low -- °F
Precip. -- in
6:49 AM 7:39 PM
Waxing Crescent, 46% visible
Pressure 29.92 in
Visibility 10.0 miles
Clouds Few 9000 ft
Heat Index 93 °F
Dew Point 76 °F
Humidity 75%
Rainfall 0.00 in
Snow Depth Not available.
UV 0 out of 12
Pollen 9.90 out of 12
Ozone Good
PM2.5 Good
Flu Activity Not available.
METAR KDTN 020053Z 15011KT 10SM FEW090 29/23 A2993 RMK AO2 SLP131 T02890233

More Conditions Fewer Conditions

Pressure 29.92 in
Visibility 10.0 miles
Clouds Few 9000 ft
Heat Index 93 °F
Dew Point 76 °F
Humidity 75%
Rainfall 0.00 in
Snow Depth Not available.
UV 0 out of 12
Pollen 9.90 out of 12
Ozone Good
PM2.5 Good
Flu Activity Not available.
METAR KDTN 020053Z 15011KT 10SM FEW090 29/23 A2993 RMK AO2 SLP131 T02890233

More Conditions Fewer Conditions

Nowcast | as of 6:33 PM CDT on September 1, 2014

Isolated to widely scattered showers and thunderstorms will continue to develop across parts of north Louisiana...southern Arkansas...and deep East Texas. Rainfall amounts will be light and spotty. Stronger storms may produce dangerous lightning...and gusty winds.

×

10-Day Weather Forecast

Almanac

Astronomy

Sep. 01, 2014 Rise Set
Actual Time 6:49 AM CDT 7:39 PM CDT
Civil Twilight 6:24 AM CDT 8:04 PM CDT
Nautical Twilight 5:55 AM CDT 8:33 PM CDT
Astronomical Twilight 5:24 AM CDT 9:04 PM CDT
Moon 1:13 PM CDT (9/1) No Moon Set
Length of Visible Light 13h 39m
Length of Day
12h 49m
Tomorrow will be 1m 55s shorter.
Waxing Crescent, 46% of the Moon is Illuminated
Today
Waxing Crescent
Sep 2
First Quarter
Sep 8
Full
Sep 15
Last Quarter
Sep 24
New

Today's Extremes

State Highs State Lows

Community

WunderPhotos

Upload Photos

1,749,476 photos uploaded!

Nearby

Air Quality

  Air Quality AQ Index Pollutant
Yesterday Good
OZONE
Yesterday Good
PM2.5
Current Good
PM2.5
Current Good
OZONE
Monday Moderate
PM2.5
Monday Good
OZONE
Tuesday Good
OZONE
Tuesday Good
PM2.5
Wednesday Good
OZONE
Wednesday Good
PM2.5

Snow Depth

Station Depth Elevation
No new snow has been reported.

Earthquake Activity

City Distance Mag. Time & Date
No recent earthquake activity has been reported nearby.
Minimum magnitude displayed is 2.5.

Coastal Water Temperatures

Place Temperature
No Stations Reporting

Nearby Weather Stations